sensor_id;sensor_type;location;lat;lon;timestamp;temperature;humidity
59146;DHT22;44928;53.074;6.646;2024-03-25T00:00:38;5.90;99.90
59146;DHT22;44928;53.074;6.646;2024-03-25T00:03:04;5.80;99.90
59146;DHT22;44928;53.074;6.646;2024-03-25T00:05:30;5.70;99.90
59146;DHT22;44928;53.074;6.646;2024-03-25T00:07:58;5.70;99.90
59146;DHT22;44928;53.074;6.646;2024-03-25T00:10:24;5.70;99.90
59146;DHT22;44928;53.074;6.646;2024-03-25T00:12:50;5.70;99.90
59146;DHT22;44928;53.074;6.646;2024-03-25T00:15:20;5.60;99.90
59146;DHT22;44928;53.074;6.646;2024-03-25T00:17:47;5.70;99.90
59146;DHT22;44928;53.074;6.646;2024-03-25T00:20:13;5.60;99.90
59146;DHT22;44928;53.074;6.646;2024-03-25T00:22:41;5.60;99.90
59146;DHT22;44928;53.074;6.646;2024-03-25T00:25:07;5.60;99.90
59146;DHT22;44928;53.074;6.646;2024-03-25T00:27:33;5.70;99.90
59146;DHT22;44928;53.074;6.646;2024-03-25T00:29:59;5.70;99.90
59146;DHT22;44928;53.074;6.646;2024-03-25T00:32:25;5.70;99.90
59146;DHT22;44928;53.074;6.646;2024-03-25T00:34:50;5.70;99.90
59146;DHT22;44928;53.074;6.646;2024-03-25T00:37:16;5.70;99.90
59146;DHT22;44928;53.074;6.646;2024-03-25T00:39:42;5.80;99.90
59146;DHT22;44928;53.074;6.646;2024-03-25T00:42:08;5.80;99.90
59146;DHT22;44928;53.074;6.646;2024-03-25T00:44:33;5.80;99.90
59146;DHT22;44928;53.074;6.646;2024-03-25T00:46:59;5.70;99.90
59146;DHT22;44928;53.074;6.646;2024-03-25T00:49:25;5.70;99.90
59146;DHT22;44928;53.074;6.646;2024-03-25T00:51:51;5.70;99.90
59146;DHT22;44928;53.074;6.646;2024-03-25T00:54:17;5.70;99.90
59146;DHT22;44928;53.074;6.646;2024-03-25T00:56:43;5.70;99.90
59146;DHT22;44928;53.074;6.646;2024-03-25T00:59:10;5.70;99.90
59146;DHT22;44928;53.074;6.646;2024-03-25T01:01:35;5.70;99.90
59146;DHT22;44928;53.074;6.646;2024-03-25T01:04:04;5.70;99.90
59146;DHT22;44928;53.074;6.646;2024-03-25T01:06:30;5.70;99.90
59146;DHT22;44928;53.074;6.646;2024-03-25T01:08:56;5.70;99.90
59146;DHT22;44928;53.074;6.646;2024-03-25T01:11:22;5.70;99.90
59146;DHT22;44928;53.074;6.646;2024-03-25T01:13:48;5.60;99.90
59146;DHT22;44928;53.074;6.646;2024-03-25T01:16:14;5.60;99.90
59146;DHT22;44928;53.074;6.646;2024-03-25T01:18:40;5.60;99.90
59146;DHT22;44928;53.074;6.646;2024-03-25T01:21:06;5.60;99.90
59146;DHT22;44928;53.074;6.646;2024-03-25T01:23:32;5.60;99.90
59146;DHT22;44928;53.074;6.646;2024-03-25T01:25:58;5.50;99.90
59146;DHT22;44928;53.074;6.646;2024-03-25T01:28:24;5.50;99.90
59146;DHT22;44928;53.074;6.646;2024-03-25T01:30:50;5.50;99.90
59146;DHT22;44928;53.074;6.646;2024-03-25T01:33:16;5.50;99.90
59146;DHT22;44928;53.074;6.646;2024-03-25T01:35:41;5.50;99.90
59146;DHT22;44928;53.074;6.646;2024-03-25T01:38:07;5.50;99.90
59146;DHT22;44928;53.074;6.646;2024-03-25T01:40:34;5.40;99.90
59146;DHT22;44928;53.074;6.646;2024-03-25T01:43:01;5.50;99.90
59146;DHT22;44928;53.074;6.646;2024-03-25T01:45:30;5.40;99.90
59146;DHT22;44928;53.074;6.646;2024-03-25T01:47:57;5.40;99.90
59146;DHT22;44928;53.074;6.646;2024-03-25T01:50:24;5.40;99.90
59146;DHT22;44928;53.074;6.646;2024-03-25T01:52:50;5.40;99.90
59146;DHT22;44928;53.074;6.646;2024-03-25T01:55:20;5.40;99.90
59146;DHT22;44928;53.074;6.646;2024-03-25T01:57:47;5.40;99.90
59146;DHT22;44928;53.074;6.646;2024-03-25T02:00:14;5.30;99.90
59146;DHT22;44928;53.074;6.646;2024-03-25T02:02:42;5.30;99.90
59146;DHT22;44928;53.074;6.646;2024-03-25T02:05:10;5.30;99.90
59146;DHT22;44928;53.074;6.646;2024-03-25T02:07:37;5.30;99.90
59146;DHT22;44928;53.074;6.646;2024-03-25T02:10:04;5.30;99.90
59146;DHT22;44928;53.074;6.646;2024-03-25T02:12:31;5.40;99.90
59146;DHT22;44928;53.074;6.646;2024-03-25T02:14:58;5.40;99.90
59146;DHT22;44928;53.074;6.646;2024-03-25T02:17:24;5.50;99.90
59146;DHT22;44928;53.074;6.646;2024-03-25T02:19:51;5.60;99.90
59146;DHT22;44928;53.074;6.646;2024-03-25T02:22:17;5.60;99.90
59146;DHT22;44928;53.074;6.646;2024-03-25T02:24:45;5.70;99.90
59146;DHT22;44928;53.074;6.646;2024-03-25T02:27:12;5.70;99.90
59146;DHT22;44928;53.074;6.646;2024-03-25T02:29:41;5.70;99.90
59146;DHT22;44928;53.074;6.646;2024-03-25T02:32:07;5.70;99.90
59146;DHT22;44928;53.074;6.646;2024-03-25T02:34:45;5.70;99.90
59146;DHT22;44928;53.074;6.646;2024-03-25T02:37:12;5.60;99.90
59146;DHT22;44928;53.074;6.646;2024-03-25T02:39:38;5.60;99.90
59146;DHT22;44928;53.074;6.646;2024-03-25T02:42:04;5.60;99.90
59146;DHT22;44928;53.074;6.646;2024-03-25T02:44:31;5.60;99.90
59146;DHT22;44928;53.074;6.646;2024-03-25T02:46:57;5.60;99.90
59146;DHT22;44928;53.074;6.646;2024-03-25T02:49:23;5.60;99.90
59146;DHT22;44928;53.074;6.646;2024-03-25T02:51:49;5.60;99.90
59146;DHT22;44928;53.074;6.646;2024-03-25T02:54:15;5.60;99.90
59146;DHT22;44928;53.074;6.646;2024-03-25T02:56:43;5.60;99.90
59146;DHT22;44928;53.074;6.646;2024-03-25T02:59:09;5.60;99.90
59146;DHT22;44928;53.074;6.646;2024-03-25T03:01:34;5.50;99.90
59146;DHT22;44928;53.074;6.646;2024-03-25T03:04:00;5.50;99.90
59146;DHT22;44928;53.074;6.646;2024-03-25T03:06:26;5.60;99.90
59146;DHT22;44928;53.074;6.646;2024-03-25T03:08:52;5.50;99.90
59146;DHT22;44928;53.074;6.646;2024-03-25T03:11:17;5.50;99.90
59146;DHT22;44928;53.074;6.646;2024-03-25T03:13:43;5.50;99.90
59146;DHT22;44928;53.074;6.646;2024-03-25T03:16:09;5.50;99.90
59146;DHT22;44928;53.074;6.646;2024-03-25T03:18:35;5.50;99.90
59146;DHT22;44928;53.074;6.646;2024-03-25T03:21:01;5.50;99.90
59146;DHT22;44928;53.074;6.646;2024-03-25T03:23:26;5.40;99.90
59146;DHT22;44928;53.074;6.646;2024-03-25T03:25:52;5.40;99.90
59146;DHT22;44928;53.074;6.646;2024-03-25T03:28:18;5.40;99.90
59146;DHT22;44928;53.074;6.646;2024-03-25T03:30:44;5.40;99.90
59146;DHT22;44928;53.074;6.646;2024-03-25T03:33:10;5.40;99.90
59146;DHT22;44928;53.074;6.646;2024-03-25T03:35:36;5.40;99.90
59146;DHT22;44928;53.074;6.646;2024-03-25T03:38:02;5.40;99.90
59146;DHT22;44928;53.074;6.646;2024-03-25T03:40:29;5.40;99.90
59146;DHT22;44928;53.074;6.646;2024-03-25T03:42:55;5.40;99.90
59146;DHT22;44928;53.074;6.646;2024-03-25T03:45:23;5.40;99.90
59146;DHT22;44928;53.074;6.646;2024-03-25T03:47:50;5.40;99.90
59146;DHT22;44928;53.074;6.646;2024-03-25T03:50:15;5.50;99.90
59146;DHT22;44928;53.074;6.646;2024-03-25T03:52:41;5.40;99.90
59146;DHT22;44928;53.074;6.646;2024-03-25T03:55:07;5.40;99.90
59146;DHT22;44928;53.074;6.646;2024-03-25T03:57:33;5.40;99.90
59146;DHT22;44928;53.074;6.646;2024-03-25T03:59:59;5.40;99.90
59146;DHT22;44928;53.074;6.646;2024-03-25T04:02:27;5.50;99.90
59146;DHT22;44928;53.074;6.646;2024-03-25T04:04:54;5.50;99.90
59146;DHT22;44928;53.074;6.646;2024-03-25T04:07:19;5.40;99.90
59146;DHT22;44928;53.074;6.646;2024-03-25T04:09:46;5.50;99.90
59146;DHT22;44928;53.074;6.646;2024-03-25T04:12:11;5.50;99.90
59146;DHT22;44928;53.074;6.646;2024-03-25T04:14:37;5.50;99.90
59146;DHT22;44928;53.074;6.646;2024-03-25T04:17:04;5.50;99.90
59146;DHT22;44928;53.074;6.646;2024-03-25T04:19:30;5.50;99.90
59146;DHT22;44928;53.074;6.646;2024-03-25T04:21:56;5.50;99.90
59146;DHT22;44928;53.074;6.646;2024-03-25T04:24:21;5.50;99.90
59146;DHT22;44928;53.074;6.646;2024-03-25T04:26:47;5.50;99.90
59146;DHT22;44928;53.074;6.646;2024-03-25T04:29:15;5.50;99.90
59146;DHT22;44928;53.074;6.646;2024-03-25T04:31:41;5.50;99.90
59146;DHT22;44928;53.074;6.646;2024-03-25T04:34:07;5.50;99.90
59146;DHT22;44928;53.074;6.646;2024-03-25T04:36:33;5.40;99.90
59146;DHT22;44928;53.074;6.646;2024-03-25T04:38:58;5.50;99.90
59146;DHT22;44928;53.074;6.646;2024-03-25T04:41:24;5.50;99.90
59146;DHT22;44928;53.074;6.646;2024-03-25T04:43:50;5.40;99.90
59146;DHT22;44928;53.074;6.646;2024-03-25T04:46:16;5.50;99.90
59146;DHT22;44928;53.074;6.646;2024-03-25T04:48:41;5.40;99.90
59146;DHT22;44928;53.074;6.646;2024-03-25T04:51:07;5.40;99.90
59146;DHT22;44928;53.074;6.646;2024-03-25T04:53:34;5.30;99.90
59146;DHT22;44928;53.074;6.646;2024-03-25T04:56:00;5.30;99.90
59146;DHT22;44928;53.074;6.646;2024-03-25T04:58:26;5.20;99.90
59146;DHT22;44928;53.074;6.646;2024-03-25T05:00:52;5.20;99.90
59146;DHT22;44928;53.074;6.646;2024-03-25T05:03:18;5.20;99.90
59146;DHT22;44928;53.074;6.646;2024-03-25T05:05:44;5.20;99.90
59146;DHT22;44928;53.074;6.646;2024-03-25T05:08:10;5.10;99.90
59146;DHT22;44928;53.074;6.646;2024-03-25T05:10:35;5.10;99.90
59146;DHT22;44928;53.074;6.646;2024-03-25T05:13:01;5.10;99.90
59146;DHT22;44928;53.074;6.646;2024-03-25T05:15:27;5.10;99.90
59146;DHT22;44928;53.074;6.646;2024-03-25T05:17:53;5.10;99.90
59146;DHT22;44928;53.074;6.646;2024-03-25T05:20:18;5.10;99.90
59146;DHT22;44928;53.074;6.646;2024-03-25T05:22:44;5.10;99.90
59146;DHT22;44928;53.074;6.646;2024-03-25T05:25:10;5.10;99.90
59146;DHT22;44928;53.074;6.646;2024-03-25T05:27:35;5.10;99.90
59146;DHT22;44928;53.074;6.646;2024-03-25T05:30:01;5.00;99.90
59146;DHT22;44928;53.074;6.646;2024-03-25T05:32:28;5.10;99.90
59146;DHT22;44928;53.074;6.646;2024-03-25T05:34:53;5.00;99.90
59146;DHT22;44928;53.074;6.646;2024-03-25T05:37:19;5.10;99.90
59146;DHT22;44928;53.074;6.646;2024-03-25T05:39:45;5.10;99.90
59146;DHT22;44928;53.074;6.646;2024-03-25T05:42:10;5.10;99.90
59146;DHT22;44928;53.074;6.646;2024-03-25T05:44:36;5.10;99.90
59146;DHT22;44928;53.074;6.646;2024-03-25T05:47:02;5.20;99.90
59146;DHT22;44928;53.074;6.646;2024-03-25T05:49:28;5.20;99.90
59146;DHT22;44928;53.074;6.646;2024-03-25T05:51:54;5.20;99.90
59146;DHT22;44928;53.074;6.646;2024-03-25T05:54:19;5.20;99.90
59146;DHT22;44928;53.074;6.646;2024-03-25T05:56:45;5.20;99.90
59146;DHT22;44928;53.074;6.646;2024-03-25T05:59:11;5.20;99.90
59146;DHT22;44928;53.074;6.646;2024-03-25T06:01:37;5.20;99.90
59146;DHT22;44928;53.074;6.646;2024-03-25T06:04:03;5.20;99.90
59146;DHT22;44928;53.074;6.646;2024-03-25T06:06:29;5.10;99.90
59146;DHT22;44928;53.074;6.646;2024-03-25T06:08:55;5.10;99.90
59146;DHT22;44928;53.074;6.646;2024-03-25T06:11:21;5.10;99.90
59146;DHT22;44928;53.074;6.646;2024-03-25T06:13:47;5.10;99.90
59146;DHT22;44928;53.074;6.646;2024-03-25T06:16:14;5.00;99.90
59146;DHT22;44928;53.074;6.646;2024-03-25T06:18:40;5.10;99.90
59146;DHT22;44928;53.074;6.646;2024-03-25T06:21:06;5.10;99.90
59146;DHT22;44928;53.074;6.646;2024-03-25T06:23:32;5.10;99.90
59146;DHT22;44928;53.074;6.646;2024-03-25T06:25:58;5.20;99.90
59146;DHT22;44928;53.074;6.646;2024-03-25T06:28:23;5.20;99.90
59146;DHT22;44928;53.074;6.646;2024-03-25T06:30:50;5.30;99.90
59146;DHT22;44928;53.074;6.646;2024-03-25T06:33:35;5.30;99.90
59146;DHT22;44928;53.074;6.646;2024-03-25T06:36:19;5.40;99.90
59146;DHT22;44928;53.074;6.646;2024-03-25T06:38:45;5.40;99.90
59146;DHT22;44928;53.074;6.646;2024-03-25T06:41:11;5.50;99.90
59146;DHT22;44928;53.074;6.646;2024-03-25T06:43:38;5.50;99.90
59146;DHT22;44928;53.074;6.646;2024-03-25T06:46:04;5.60;99.90
59146;DHT22;44928;53.074;6.646;2024-03-25T06:48:30;5.60;99.90
59146;DHT22;44928;53.074;6.646;2024-03-25T06:50:57;5.70;99.90
59146;DHT22;44928;53.074;6.646;2024-03-25T06:53:24;5.70;99.90
59146;DHT22;44928;53.074;6.646;2024-03-25T06:55:54;5.70;99.90
59146;DHT22;44928;53.074;6.646;2024-03-25T06:58:25;5.70;99.90
59146;DHT22;44928;53.074;6.646;2024-03-25T07:00:51;5.80;99.90
59146;DHT22;44928;53.074;6.646;2024-03-25T07:03:18;5.80;99.90
59146;DHT22;44928;53.074;6.646;2024-03-25T07:05:45;5.90;99.90
59146;DHT22;44928;53.074;6.646;2024-03-25T07:08:11;5.90;99.90
59146;DHT22;44928;53.074;6.646;2024-03-25T07:10:37;5.90;99.90
59146;DHT22;44928;53.074;6.646;2024-03-25T07:13:04;5.90;99.90
59146;DHT22;44928;53.074;6.646;2024-03-25T07:15:31;5.90;99.90
59146;DHT22;44928;53.074;6.646;2024-03-25T07:17:57;5.90;99.90
59146;DHT22;44928;53.074;6.646;2024-03-25T07:20:23;5.90;99.90
59146;DHT22;44928;53.074;6.646;2024-03-25T07:22:49;5.90;99.90
59146;DHT22;44928;53.074;6.646;2024-03-25T07:25:15;5.90;99.90
59146;DHT22;44928;53.074;6.646;2024-03-25T07:27:40;5.90;99.90
59146;DHT22;44928;53.074;6.646;2024-03-25T07:30:07;6.00;99.90
59146;DHT22;44928;53.074;6.646;2024-03-25T07:32:34;6.10;99.90
59146;DHT22;44928;53.074;6.646;2024-03-25T07:35:00;6.20;99.90
59146;DHT22;44928;53.074;6.646;2024-03-25T07:37:26;6.30;99.90
59146;DHT22;44928;53.074;6.646;2024-03-25T07:39:52;6.50;99.90
59146;DHT22;44928;53.074;6.646;2024-03-25T07:42:18;6.60;99.90
59146;DHT22;44928;53.074;6.646;2024-03-25T07:44:44;6.60;99.90
59146;DHT22;44928;53.074;6.646;2024-03-25T07:47:10;6.70;99.90
59146;DHT22;44928;53.074;6.646;2024-03-25T07:49:36;6.70;99.90
59146;DHT22;44928;53.074;6.646;2024-03-25T07:52:02;6.80;99.90
59146;DHT22;44928;53.074;6.646;2024-03-25T07:54:29;6.80;99.90
59146;DHT22;44928;53.074;6.646;2024-03-25T07:56:54;6.70;99.90
59146;DHT22;44928;53.074;6.646;2024-03-25T07:59:20;6.70;99.90
59146;DHT22;44928;53.074;6.646;2024-03-25T08:01:46;6.60;99.90
59146;DHT22;44928;53.074;6.646;2024-03-25T08:04:12;6.70;99.90
59146;DHT22;44928;53.074;6.646;2024-03-25T08:06:37;6.80;99.90
59146;DHT22;44928;53.074;6.646;2024-03-25T08:09:03;6.80;99.90
59146;DHT22;44928;53.074;6.646;2024-03-25T08:11:32;6.80;99.90
59146;DHT22;44928;53.074;6.646;2024-03-25T08:13:58;6.80;99.90
59146;DHT22;44928;53.074;6.646;2024-03-25T08:16:24;6.90;99.90
59146;DHT22;44928;53.074;6.646;2024-03-25T08:18:50;7.00;99.90
59146;DHT22;44928;53.074;6.646;2024-03-25T08:21:16;7.00;99.90
59146;DHT22;44928;53.074;6.646;2024-03-25T08:23:45;7.10;99.90
59146;DHT22;44928;53.074;6.646;2024-03-25T08:26:11;7.20;99.90
59146;DHT22;44928;53.074;6.646;2024-03-25T08:28:37;7.20;99.90
59146;DHT22;44928;53.074;6.646;2024-03-25T08:31:03;7.30;99.90
59146;DHT22;44928;53.074;6.646;2024-03-25T08:33:29;7.40;99.90
59146;DHT22;44928;53.074;6.646;2024-03-25T08:35:56;7.50;99.90
59146;DHT22;44928;53.074;6.646;2024-03-25T08:38:21;7.50;99.90
59146;DHT22;44928;53.074;6.646;2024-03-25T08:40:47;7.60;99.90
59146;DHT22;44928;53.074;6.646;2024-03-25T08:43:13;7.50;99.90
59146;DHT22;44928;53.074;6.646;2024-03-25T08:45:39;7.50;99.90
59146;DHT22;44928;53.074;6.646;2024-03-25T08:48:06;7.50;99.90
59146;DHT22;44928;53.074;6.646;2024-03-25T08:50:32;7.50;99.90
59146;DHT22;44928;53.074;6.646;2024-03-25T08:52:58;7.50;99.90
59146;DHT22;44928;53.074;6.646;2024-03-25T08:55:24;7.50;99.90
59146;DHT22;44928;53.074;6.646;2024-03-25T08:57:50;7.50;99.90
59146;DHT22;44928;53.074;6.646;2024-03-25T09:00:17;7.60;99.90
59146;DHT22;44928;53.074;6.646;2024-03-25T09:02:43;7.80;99.90
59146;DHT22;44928;53.074;6.646;2024-03-25T09:05:09;7.80;99.90
59146;DHT22;44928;53.074;6.646;2024-03-25T09:07:36;7.90;99.90
59146;DHT22;44928;53.074;6.646;2024-03-25T09:10:02;8.00;99.90
59146;DHT22;44928;53.074;6.646;2024-03-25T09:12:47;8.00;99.90
59146;DHT22;44928;53.074;6.646;2024-03-25T09:15:12;8.10;99.90
59146;DHT22;44928;53.074;6.646;2024-03-25T09:17:40;8.20;99.90
59146;DHT22;44928;53.074;6.646;2024-03-25T09:20:06;8.40;99.90
59146;DHT22;44928;53.074;6.646;2024-03-25T09:22:52;8.50;99.90
59146;DHT22;44928;53.074;6.646;2024-03-25T09:25:18;8.50;99.90
59146;DHT22;44928;53.074;6.646;2024-03-25T09:27:48;8.50;99.90
59146;DHT22;44928;53.074;6.646;2024-03-25T09:30:14;8.50;99.90
59146;DHT22;44928;53.074;6.646;2024-03-25T09:32:41;8.40;99.90
59146;DHT22;44928;53.074;6.646;2024-03-25T09:35:07;8.30;99.90
59146;DHT22;44928;53.074;6.646;2024-03-25T09:37:33;8.30;99.90
59146;DHT22;44928;53.074;6.646;2024-03-25T09:39:59;8.40;99.90
59146;DHT22;44928;53.074;6.646;2024-03-25T09:42:48;8.50;99.90
59146;DHT22;44928;53.074;6.646;2024-03-25T09:45:16;8.60;99.90
59146;DHT22;44928;53.074;6.646;2024-03-25T09:47:46;8.70;99.90
59146;DHT22;44928;53.074;6.646;2024-03-25T09:50:13;8.80;99.90
59146;DHT22;44928;53.074;6.646;2024-03-25T09:52:50;8.80;99.90
59146;DHT22;44928;53.074;6.646;2024-03-25T09:55:17;8.80;99.90
59146;DHT22;44928;53.074;6.646;2024-03-25T09:57:44;8.90;99.90
59146;DHT22;44928;53.074;6.646;2024-03-25T10:00:11;9.10;99.90
59146;DHT22;44928;53.074;6.646;2024-03-25T10:02:38;9.10;99.90
59146;DHT22;44928;53.074;6.646;2024-03-25T10:05:05;9.20;99.90
59146;DHT22;44928;53.074;6.646;2024-03-25T10:07:32;9.20;99.90
59146;DHT22;44928;53.074;6.646;2024-03-25T10:09:58;9.30;99.90
59146;DHT22;44928;53.074;6.646;2024-03-25T10:12:25;9.30;99.90
59146;DHT22;44928;53.074;6.646;2024-03-25T10:14:50;9.20;99.90
59146;DHT22;44928;53.074;6.646;2024-03-25T10:17:16;9.30;99.90
59146;DHT22;44928;53.074;6.646;2024-03-25T10:19:42;9.30;99.90
59146;DHT22;44928;53.074;6.646;2024-03-25T10:22:08;9.40;99.90
59146;DHT22;44928;53.074;6.646;2024-03-25T10:27:05;9.70;99.90
59146;DHT22;44928;53.074;6.646;2024-03-25T10:29:31;9.90;99.90
59146;DHT22;44928;53.074;6.646;2024-03-25T10:32:00;10.10;99.90
59146;DHT22;44928;53.074;6.646;2024-03-25T10:34:26;10.20;99.90
59146;DHT22;44928;53.074;6.646;2024-03-25T10:36:56;10.40;99.90
59146;DHT22;44928;53.074;6.646;2024-03-25T10:39:25;10.60;99.90
59146;DHT22;44928;53.074;6.646;2024-03-25T10:41:58;10.70;99.90
59146;DHT22;44928;53.074;6.646;2024-03-25T10:44:29;10.80;99.90
59146;DHT22;44928;53.074;6.646;2024-03-25T10:47:02;10.80;99.90
59146;DHT22;44928;53.074;6.646;2024-03-25T10:49:38;11.00;99.90
59146;DHT22;44928;53.074;6.646;2024-03-25T10:52:08;11.10;99.90
59146;DHT22;44928;53.074;6.646;2024-03-25T10:54:35;11.40;99.90
59146;DHT22;44928;53.074;6.646;2024-03-25T10:57:03;11.50;99.90
59146;DHT22;44928;53.074;6.646;2024-03-25T10:59:30;11.60;99.90
59146;DHT22;44928;53.074;6.646;2024-03-25T11:01:56;11.60;99.90
59146;DHT22;44928;53.074;6.646;2024-03-25T11:04:23;11.70;99.90
59146;DHT22;44928;53.074;6.646;2024-03-25T11:06:49;11.60;98.40
59146;DHT22;44928;53.074;6.646;2024-03-25T11:09:25;11.50;96.40
59146;DHT22;44928;53.074;6.646;2024-03-25T11:11:54;11.50;95.90
59146;DHT22;44928;53.074;6.646;2024-03-25T11:14:19;11.50;99.90
59146;DHT22;44928;53.074;6.646;2024-03-25T11:16:55;11.20;99.90
59146;DHT22;44928;53.074;6.646;2024-03-25T11:19:28;11.00;99.90
59146;DHT22;44928;53.074;6.646;2024-03-25T11:22:06;10.80;99.90
59146;DHT22;44928;53.074;6.646;2024-03-25T11:24:32;10.60;99.90
59146;DHT22;44928;53.074;6.646;2024-03-25T11:27:01;10.40;99.90
59146;DHT22;44928;53.074;6.646;2024-03-25T11:29:27;10.20;99.90
59146;DHT22;44928;53.074;6.646;2024-03-25T11:31:53;10.00;99.90
59146;DHT22;44928;53.074;6.646;2024-03-25T11:34:19;9.90;99.90
59146;DHT22;44928;53.074;6.646;2024-03-25T11:36:46;9.90;99.90
59146;DHT22;44928;53.074;6.646;2024-03-25T11:39:15;10.10;99.90
59146;DHT22;44928;53.074;6.646;2024-03-25T11:41:44;10.30;99.90
59146;DHT22;44928;53.074;6.646;2024-03-25T11:44:11;10.40;99.90
59146;DHT22;44928;53.074;6.646;2024-03-25T11:46:41;10.40;99.90
59146;DHT22;44928;53.074;6.646;2024-03-25T11:49:07;10.40;99.90
59146;DHT22;44928;53.074;6.646;2024-03-25T11:51:35;10.50;99.90
59146;DHT22;44928;53.074;6.646;2024-03-25T11:54:04;10.70;99.90
59146;DHT22;44928;53.074;6.646;2024-03-25T11:56:33;10.80;99.90
59146;DHT22;44928;53.074;6.646;2024-03-25T11:59:02;10.80;99.90
59146;DHT22;44928;53.074;6.646;2024-03-25T12:01:29;10.90;99.90
59146;DHT22;44928;53.074;6.646;2024-03-25T12:03:55;10.80;99.90
59146;DHT22;44928;53.074;6.646;2024-03-25T12:06:21;10.70;99.90
59146;DHT22;44928;53.074;6.646;2024-03-25T12:08:46;10.70;99.90
59146;DHT22;44928;53.074;6.646;2024-03-25T12:11:31;10.60;99.90
59146;DHT22;44928;53.074;6.646;2024-03-25T12:13:58;10.50;99.90
59146;DHT22;44928;53.074;6.646;2024-03-25T12:16:24;10.40;99.90
59146;DHT22;44928;53.074;6.646;2024-03-25T12:18:51;10.40;99.90
59146;DHT22;44928;53.074;6.646;2024-03-25T12:21:18;10.50;99.90
59146;DHT22;44928;53.074;6.646;2024-03-25T12:23:44;10.70;99.90
59146;DHT22;44928;53.074;6.646;2024-03-25T12:26:10;10.90;99.90
59146;DHT22;44928;53.074;6.646;2024-03-25T12:28:36;11.30;99.90
59146;DHT22;44928;53.074;6.646;2024-03-25T12:31:07;11.50;99.90
59146;DHT22;44928;53.074;6.646;2024-03-25T12:33:43;11.60;99.90
59146;DHT22;44928;53.074;6.646;2024-03-25T12:36:12;11.60;99.90
59146;DHT22;44928;53.074;6.646;2024-03-25T12:38:38;11.70;99.90
59146;DHT22;44928;53.074;6.646;2024-03-25T12:41:05;12.00;99.90
59146;DHT22;44928;53.074;6.646;2024-03-25T12:43:32;12.30;99.90
59146;DHT22;44928;53.074;6.646;2024-03-25T12:45:58;12.50;99.90
59146;DHT22;44928;53.074;6.646;2024-03-25T12:48:25;12.50;99.90
59146;DHT22;44928;53.074;6.646;2024-03-25T12:50:51;12.50;99.90
59146;DHT22;44928;53.074;6.646;2024-03-25T12:53:18;12.80;99.90
59146;DHT22;44928;53.074;6.646;2024-03-25T12:55:46;13.20;99.90
59146;DHT22;44928;53.074;6.646;2024-03-25T12:58:12;13.40;99.90
59146;DHT22;44928;53.074;6.646;2024-03-25T13:00:38;13.40;99.90
59146;DHT22;44928;53.074;6.646;2024-03-25T13:03:07;13.30;99.90
59146;DHT22;44928;53.074;6.646;2024-03-25T13:05:34;13.10;99.90
59146;DHT22;44928;53.074;6.646;2024-03-25T13:08:00;12.90;99.90
59146;DHT22;44928;53.074;6.646;2024-03-25T13:10:27;12.70;99.90
59146;DHT22;44928;53.074;6.646;2024-03-25T13:12:53;12.60;99.90
59146;DHT22;44928;53.074;6.646;2024-03-25T13:15:19;12.40;99.90
59146;DHT22;44928;53.074;6.646;2024-03-25T13:17:45;12.30;99.90
59146;DHT22;44928;53.074;6.646;2024-03-25T13:20:11;12.20;99.90
59146;DHT22;44928;53.074;6.646;2024-03-25T13:22:37;12.20;99.90
59146;DHT22;44928;53.074;6.646;2024-03-25T13:25:04;12.10;99.60
59146;DHT22;44928;53.074;6.646;2024-03-25T13:27:29;12.00;92.90
59146;DHT22;44928;53.074;6.646;2024-03-25T13:29:55;12.20;94.40
59146;DHT22;44928;53.074;6.646;2024-03-25T13:32:21;12.40;94.20
59146;DHT22;44928;53.074;6.646;2024-03-25T13:34:49;12.60;94.30
59146;DHT22;44928;53.074;6.646;2024-03-25T13:37:14;12.70;92.40
59146;DHT22;44928;53.074;6.646;2024-03-25T13:39:40;13.00;91.90
59146;DHT22;44928;53.074;6.646;2024-03-25T13:42:06;13.10;89.00
59146;DHT22;44928;53.074;6.646;2024-03-25T13:44:32;13.10;90.30
59146;DHT22;44928;53.074;6.646;2024-03-25T13:46:58;13.20;85.90
59146;DHT22;44928;53.074;6.646;2024-03-25T13:49:23;13.10;82.10
59146;DHT22;44928;53.074;6.646;2024-03-25T13:51:57;13.30;84.10
59146;DHT22;44928;53.074;6.646;2024-03-25T13:54:28;12.90;87.00
59146;DHT22;44928;53.074;6.646;2024-03-25T13:56:55;12.60;92.10
59146;DHT22;44928;53.074;6.646;2024-03-25T13:59:21;12.40;95.80
59146;DHT22;44928;53.074;6.646;2024-03-25T14:01:46;12.50;97.70
59146;DHT22;44928;53.074;6.646;2024-03-25T14:04:12;12.50;97.00
59146;DHT22;44928;53.074;6.646;2024-03-25T14:06:39;12.50;94.90
59146;DHT22;44928;53.074;6.646;2024-03-25T14:09:06;13.00;92.20
59146;DHT22;44928;53.074;6.646;2024-03-25T14:11:35;13.80;94.20
59146;DHT22;44928;53.074;6.646;2024-03-25T14:14:01;14.50;90.90
59146;DHT22;44928;53.074;6.646;2024-03-25T14:16:30;15.00;88.90
59146;DHT22;44928;53.074;6.646;2024-03-25T14:18:56;15.60;82.00
59146;DHT22;44928;53.074;6.646;2024-03-25T14:21:22;16.10;76.30
59146;DHT22;44928;53.074;6.646;2024-03-25T14:23:47;15.80;69.30
59146;DHT22;44928;53.074;6.646;2024-03-25T14:26:13;15.40;67.50
59146;DHT22;44928;53.074;6.646;2024-03-25T14:28:42;14.90;68.90
59146;DHT22;44928;53.074;6.646;2024-03-25T14:31:08;14.50;72.40
59146;DHT22;44928;53.074;6.646;2024-03-25T14:33:34;14.00;74.60
59146;DHT22;44928;53.074;6.646;2024-03-25T14:36:00;13.60;79.60
59146;DHT22;44928;53.074;6.646;2024-03-25T14:38:25;13.10;87.90
59146;DHT22;44928;53.074;6.646;2024-03-25T14:40:51;12.70;87.90
59146;DHT22;44928;53.074;6.646;2024-03-25T14:43:18;12.40;91.80
59146;DHT22;44928;53.074;6.646;2024-03-25T14:45:46;12.10;95.10
59146;DHT22;44928;53.074;6.646;2024-03-25T14:48:12;12.10;98.20
59146;DHT22;44928;53.074;6.646;2024-03-25T14:50:38;12.40;99.90
59146;DHT22;44928;53.074;6.646;2024-03-25T14:53:04;13.00;99.80
59146;DHT22;44928;53.074;6.646;2024-03-25T14:55:30;13.70;97.20
59146;DHT22;44928;53.074;6.646;2024-03-25T14:57:56;14.40;90.10
59146;DHT22;44928;53.074;6.646;2024-03-25T15:00:22;15.30;78.40
59146;DHT22;44928;53.074;6.646;2024-03-25T15:02:53;15.50;70.40
59146;DHT22;44928;53.074;6.646;2024-03-25T15:05:19;15.80;70.30
59146;DHT22;44928;53.074;6.646;2024-03-25T15:07:45;16.30;69.90
59146;DHT22;44928;53.074;6.646;2024-03-25T15:10:11;16.80;68.50
59146;DHT22;44928;53.074;6.646;2024-03-25T15:12:38;16.80;64.80
59146;DHT22;44928;53.074;6.646;2024-03-25T15:15:04;17.00;64.60
59146;DHT22;44928;53.074;6.646;2024-03-25T15:17:35;17.60;64.40
59146;DHT22;44928;53.074;6.646;2024-03-25T15:20:03;17.30;63.10
59146;DHT22;44928;53.074;6.646;2024-03-25T15:22:29;16.90;63.50
59146;DHT22;44928;53.074;6.646;2024-03-25T15:24:55;16.30;64.50
59146;DHT22;44928;53.074;6.646;2024-03-25T15:27:21;16.60;65.40
59146;DHT22;44928;53.074;6.646;2024-03-25T15:29:47;16.90;63.70
59146;DHT22;44928;53.074;6.646;2024-03-25T15:32:13;16.70;63.10
59146;DHT22;44928;53.074;6.646;2024-03-25T15:34:39;16.40;64.00
59146;DHT22;44928;53.074;6.646;2024-03-25T15:37:05;16.00;64.40
59146;DHT22;44928;53.074;6.646;2024-03-25T15:39:30;15.40;63.90